sensor_id;sensor_type;location;lat;lon;timestamp;P1;durP1;ratioP1;P2;durP2;ratioP2
67164;SDS011;54093;50.014;19.984;2022-09-20T00:01:56;9.45;;;8.55;;
67164;SDS011;54093;50.014;19.984;2022-09-20T00:11:21;14.30;;;9.35;;
67164;SDS011;54093;50.014;19.984;2022-09-20T00:20:47;8.43;;;7.60;;
67164;SDS011;54093;50.014;19.984;2022-09-20T00:30:09;9.03;;;8.27;;
67164;SDS011;54093;50.014;19.984;2022-09-20T00:39:30;12.98;;;8.98;;
67164;SDS011;54093;50.014;19.984;2022-09-20T00:48:52;9.75;;;8.85;;
67164;SDS011;54093;50.014;19.984;2022-09-20T00:58:18;13.88;;;11.30;;
67164;SDS011;54093;50.014;19.984;2022-09-20T01:07:41;10.45;;;9.23;;
67164;SDS011;54093;50.014;19.984;2022-09-20T01:17:03;10.93;;;9.50;;
67164;SDS011;54093;50.014;19.984;2022-09-20T01:26:35;13.90;;;10.77;;
67164;SDS011;54093;50.014;19.984;2022-09-20T01:36:03;11.15;;;10.13;;
67164;SDS011;54093;50.014;19.984;2022-09-20T01:45:26;11.88;;;9.65;;
67164;SDS011;54093;50.014;19.984;2022-09-20T02:04:57;10.68;;;9.57;;
67164;SDS011;54093;50.014;19.984;2022-09-20T02:33:51;15.52;;;11.73;;
67164;SDS011;54093;50.014;19.984;2022-09-20T02:54:02;13.98;;;11.00;;
67164;SDS011;54093;50.014;19.984;2022-09-20T03:12:56;14.40;;;13.10;;
67164;SDS011;54093;50.014;19.984;2022-09-20T03:22:38;15.60;;;13.13;;
67164;SDS011;54093;50.014;19.984;2022-09-20T03:41:47;16.88;;;14.23;;
67164;SDS011;54093;50.014;19.984;2022-09-20T03:52:17;16.00;;;13.93;;
67164;SDS011;54093;50.014;19.984;2022-09-20T04:20:30;19.90;;;13.70;;
67164;SDS011;54093;50.014;19.984;2022-09-20T04:59:05;10.18;;;9.10;;
67164;SDS011;54093;50.014;19.984;2022-09-20T05:56:39;11.32;;;10.30;;
67164;SDS011;54093;50.014;19.984;2022-09-20T06:06:17;11.30;;;9.52;;
67164;SDS011;54093;50.014;19.984;2022-09-20T06:15:58;11.00;;;9.85;;
67164;SDS011;54093;50.014;19.984;2022-09-20T06:25:22;13.65;;;12.45;;
67164;SDS011;54093;50.014;19.984;2022-09-20T06:34:49;17.42;;;10.52;;
67164;SDS011;54093;50.014;19.984;2022-09-20T06:44:10;9.75;;;8.90;;
67164;SDS011;54093;50.014;19.984;2022-09-20T06:53:31;11.18;;;9.73;;
67164;SDS011;54093;50.014;19.984;2022-09-20T07:02:56;26.30;;;12.00;;
67164;SDS011;54093;50.014;19.984;2022-09-20T07:12:17;9.43;;;8.52;;
67164;SDS011;54093;50.014;19.984;2022-09-20T07:21:38;9.63;;;8.63;;
67164;SDS011;54093;50.014;19.984;2022-09-20T07:30:59;8.63;;;7.78;;
67164;SDS011;54093;50.014;19.984;2022-09-20T07:40:20;17.17;;;7.95;;
67164;SDS011;54093;50.014;19.984;2022-09-20T07:49:41;7.47;;;6.78;;
67164;SDS011;54093;50.014;19.984;2022-09-20T07:59:02;10.15;;;7.28;;
67164;SDS011;54093;50.014;19.984;2022-09-20T08:08:23;7.93;;;7.20;;
67164;SDS011;54093;50.014;19.984;2022-09-20T08:17:45;11.55;;;6.68;;
67164;SDS011;54093;50.014;19.984;2022-09-20T08:27:06;7.70;;;7.10;;
67164;SDS011;54093;50.014;19.984;2022-09-20T08:36:28;6.80;;;5.07;;
67164;SDS011;54093;50.014;19.984;2022-09-20T08:45:50;5.28;;;4.95;;
67164;SDS011;54093;50.014;19.984;2022-09-20T08:55:12;4.30;;;3.88;;
67164;SDS011;54093;50.014;19.984;2022-09-20T09:04:36;4.35;;;4.05;;
67164;SDS011;54093;50.014;19.984;2022-09-20T09:23:49;5.30;;;3.17;;
67164;SDS011;54093;50.014;19.984;2022-09-20T09:33:17;3.55;;;3.35;;
67164;SDS011;54093;50.014;19.984;2022-09-20T09:42:48;4.18;;;3.78;;
67164;SDS011;54093;50.014;19.984;2022-09-20T09:52:14;3.13;;;2.93;;
67164;SDS011;54093;50.014;19.984;2022-09-20T10:11:42;3.53;;;3.33;;
67164;SDS011;54093;50.014;19.984;2022-09-20T10:51:23;2.30;;;2.10;;
67164;SDS011;54093;50.014;19.984;2022-09-20T11:01:24;5.18;;;2.15;;
67164;SDS011;54093;50.014;19.984;2022-09-20T11:11:22;3.70;;;3.50;;
67164;SDS011;54093;50.014;19.984;2022-09-20T11:20:46;3.60;;;3.40;;
67164;SDS011;54093;50.014;19.984;2022-09-20T11:30:33;4.18;;;3.97;;
67164;SDS011;54093;50.014;19.984;2022-09-20T11:40:06;2.10;;;2.00;;
67164;SDS011;54093;50.014;19.984;2022-09-20T14:03:48;0.70;;;0.70;;
67164;SDS011;54093;50.014;19.984;2022-09-20T14:13:13;0.70;;;0.70;;
67164;SDS011;54093;50.014;19.984;2022-09-20T14:22:35;0.70;;;0.70;;
67164;SDS011;54093;50.014;19.984;2022-09-20T14:31:56;1.55;;;0.65;;
67164;SDS011;54093;50.014;19.984;2022-09-20T14:41:27;0.70;;;0.70;;
67164;SDS011;54093;50.014;19.984;2022-09-20T15:00:47;1.00;;;1.00;;
67164;SDS011;54093;50.014;19.984;2022-09-20T15:10:11;6.18;;;1.10;;
67164;SDS011;54093;50.014;19.984;2022-09-20T15:19:32;1.45;;;1.35;;
67164;SDS011;54093;50.014;19.984;2022-09-20T15:28:53;1.00;;;1.00;;
67164;SDS011;54093;50.014;19.984;2022-09-20T15:38:17;1.42;;;1.20;;
67164;SDS011;54093;50.014;19.984;2022-09-20T15:47:38;1.85;;;1.17;;
67164;SDS011;54093;50.014;19.984;2022-09-20T15:56:59;1.55;;;1.45;;
67164;SDS011;54093;50.014;19.984;2022-09-20T16:06:20;1.05;;;1.05;;
67164;SDS011;54093;50.014;19.984;2022-09-20T16:15:42;2.20;;;1.58;;
67164;SDS011;54093;50.014;19.984;2022-09-20T16:25:03;1.13;;;1.13;;
67164;SDS011;54093;50.014;19.984;2022-09-20T16:34:29;1.95;;;1.85;;
67164;SDS011;54093;50.014;19.984;2022-09-20T16:49:14;1.98;;;1.88;;
67164;SDS011;54093;50.014;19.984;2022-09-20T16:58:36;2.10;;;1.92;;
67164;SDS011;54093;50.014;19.984;2022-09-20T17:07:57;2.35;;;1.70;;
67164;SDS011;54093;50.014;19.984;2022-09-20T17:17:17;4.38;;;2.35;;
67164;SDS011;54093;50.014;19.984;2022-09-20T17:26:41;6.22;;;2.58;;
67164;SDS011;54093;50.014;19.984;2022-09-20T17:36:05;2.85;;;2.75;;
67164;SDS011;54093;50.014;19.984;2022-09-20T17:45:27;2.80;;;2.60;;
67164;SDS011;54093;50.014;19.984;2022-09-20T17:54:48;3.45;;;3.15;;
67164;SDS011;54093;50.014;19.984;2022-09-20T18:04:09;4.30;;;4.00;;
67164;SDS011;54093;50.014;19.984;2022-09-20T18:13:30;7.88;;;4.82;;
67164;SDS011;54093;50.014;19.984;2022-09-20T18:22:52;5.43;;;4.72;;
67164;SDS011;54093;50.014;19.984;2022-09-20T18:32:12;5.38;;;5.05;;
67164;SDS011;54093;50.014;19.984;2022-09-20T18:41:37;5.60;;;5.10;;
67164;SDS011;54093;50.014;19.984;2022-09-20T18:51:00;5.68;;;4.75;;
67164;SDS011;54093;50.014;19.984;2022-09-20T19:00:22;5.57;;;5.18;;
67164;SDS011;54093;50.014;19.984;2022-09-20T19:19:56;6.70;;;6.13;;
67164;SDS011;54093;50.014;19.984;2022-09-20T19:29:24;6.88;;;6.35;;
67164;SDS011;54093;50.014;19.984;2022-09-20T19:38:54;6.72;;;6.13;;
67164;SDS011;54093;50.014;19.984;2022-09-20T19:48:30;8.77;;;6.22;;
67164;SDS011;54093;50.014;19.984;2022-09-20T19:57:56;6.95;;;5.93;;
67164;SDS011;54093;50.014;19.984;2022-09-20T20:26:23;9.23;;;8.23;;
67164;SDS011;54093;50.014;19.984;2022-09-20T20:35:51;12.75;;;9.30;;
67164;SDS011;54093;50.014;19.984;2022-09-20T20:45:13;11.38;;;8.23;;
67164;SDS011;54093;50.014;19.984;2022-09-20T20:54:34;10.38;;;8.20;;
67164;SDS011;54093;50.014;19.984;2022-09-20T21:03:56;9.60;;;8.35;;
67164;SDS011;54093;50.014;19.984;2022-09-20T21:13:18;13.05;;;8.88;;
67164;SDS011;54093;50.014;19.984;2022-09-20T21:22:38;14.63;;;9.73;;
67164;SDS011;54093;50.014;19.984;2022-09-20T21:31:59;12.77;;;9.98;;
67164;SDS011;54093;50.014;19.984;2022-09-20T21:41:27;18.60;;;11.05;;
67164;SDS011;54093;50.014;19.984;2022-09-20T21:50:49;11.60;;;9.00;;
67164;SDS011;54093;50.014;19.984;2022-09-20T22:00:10;18.02;;;11.45;;
67164;SDS011;54093;50.014;19.984;2022-09-20T22:09:32;17.00;;;12.02;;
67164;SDS011;54093;50.014;19.984;2022-09-20T22:18:52;10.98;;;9.30;;
67164;SDS011;54093;50.014;19.984;2022-09-20T22:28:13;18.13;;;9.13;;
67164;SDS011;54093;50.014;19.984;2022-09-20T22:37:34;21.25;;;10.45;;
67164;SDS011;54093;50.014;19.984;2022-09-20T22:46:55;13.25;;;9.95;;
67164;SDS011;54093;50.014;19.984;2022-09-20T22:56:16;11.60;;;9.82;;
67164;SDS011;54093;50.014;19.984;2022-09-20T23:05:41;17.40;;;10.27;;
67164;SDS011;54093;50.014;19.984;2022-09-20T23:15:04;11.30;;;9.27;;
67164;SDS011;54093;50.014;19.984;2022-09-20T23:24:26;12.27;;;9.65;;
67164;SDS011;54093;50.014;19.984;2022-09-20T23:33:47;13.25;;;9.40;;
67164;SDS011;54093;50.014;19.984;2022-09-20T23:43:09;11.13;;;9.85;;
67164;SDS011;54093;50.014;19.984;2022-09-20T23:52:30;14.73;;;10.15;;
